createdAt,value
2022-08-26T01:17:16.153Z,18.73
2022-08-26T01:20:18.861Z,13.10
2022-08-26T01:23:08.974Z,18.23
2022-08-26T01:25:59.823Z,10.95
2022-08-26T01:28:50.693Z,15.50
2022-08-26T01:37:40.487Z,12.95
2022-08-26T01:40:33.432Z,11.00
2022-08-26T01:43:23.556Z,14.52
2022-08-26T01:46:10.711Z,15.23
2022-08-26T01:49:00.813Z,14.60
2022-08-26T02:09:08.770Z,13.15
2022-08-26T02:15:21.964Z,14.48
2022-08-26T02:18:08.797Z,17.98
2022-08-26T03:06:19.458Z,15.05
2022-08-26T03:18:07.949Z,12.38
2022-08-26T03:21:09.617Z,15.07
2022-08-26T03:30:24.425Z,18.15
2022-08-26T03:33:11.624Z,16.20
2022-08-26T03:35:57.920Z,12.57
2022-08-26T04:01:58.005Z,14.25
2022-08-26T04:44:10.134Z,19.20
2022-08-26T04:46:57.216Z,18.70
2022-08-26T04:49:55.499Z,21.55
2022-08-26T04:58:53.595Z,22.13
2022-08-26T05:16:49.264Z,23.02
2022-08-26T05:19:38.578Z,16.92
2022-08-26T05:22:33.520Z,18.88
2022-08-26T05:31:20.482Z,19.23
2022-08-26T05:58:54.503Z,19.80
2022-08-26T06:01:41.403Z,23.08
2022-08-26T06:13:43.332Z,23.33
2022-08-26T07:48:21.476Z,19.85
2022-08-26T08:00:12.914Z,16.63
2022-08-26T08:03:00.583Z,19.50
2022-08-26T08:05:46.491Z,23.52
2022-08-26T08:08:33.181Z,19.40
2022-08-26T08:11:23.422Z,24.58
2022-08-26T08:19:55.195Z,21.30
2022-08-26T08:22:42.495Z,17.13
2022-08-26T08:33:57.392Z,19.70
2022-08-26T08:40:18.640Z,18.50
2022-08-26T08:43:13.753Z,18.85
2022-08-26T08:46:08.249Z,17.88
2022-08-26T08:49:19.555Z,17.20
2022-08-26T08:52:23.488Z,19.60
2022-08-26T08:55:18.180Z,16.80
2022-08-26T08:58:10.495Z,16.92
2022-08-26T09:01:09.864Z,13.85
2022-08-26T09:04:13.690Z,18.67
2022-08-26T09:07:06.985Z,15.63
2022-08-26T09:09:59.318Z,14.75
2022-08-26T09:12:50.870Z,18.00
2022-08-26T09:19:00.324Z,15.40
2022-08-26T09:21:56.799Z,15.90
2022-08-26T09:24:48.287Z,12.45
2022-08-26T09:27:47.502Z,15.13
2022-08-26T09:30:38.114Z,13.90
2022-08-26T09:33:29.463Z,12.50
2022-08-26T09:36:26.568Z,15.45
2022-08-26T09:39:27.776Z,14.57
2022-08-26T09:42:22.865Z,12.60
2022-08-26T09:45:10.606Z,14.00
2022-08-26T09:48:01.252Z,14.05
2022-08-26T09:50:56.675Z,13.45
2022-08-26T09:54:24.424Z,18.17
2022-08-26T09:57:26.519Z,13.35
2022-08-26T10:00:38.556Z,13.02
2022-08-26T10:03:28.551Z,13.07
2022-08-26T10:06:17.698Z,11.82
2022-08-26T10:09:11.446Z,9.70
2022-08-26T10:12:01.072Z,10.07
2022-08-26T10:14:54.218Z,12.73
2022-08-26T10:18:00.232Z,17.05
2022-08-26T10:20:55.858Z,13.32
2022-08-26T10:24:07.008Z,16.77
2022-08-26T10:27:19.972Z,12.27
2022-08-26T10:30:11.146Z,18.52
2022-08-26T10:33:04.521Z,9.75
2022-08-26T10:36:52.426Z,13.57
2022-08-26T10:40:18.644Z,15.70
2022-08-26T10:43:26.523Z,9.27
2022-08-26T10:46:27.378Z,9.03
2022-08-26T10:49:16.004Z,8.35
2022-08-26T10:52:22.864Z,10.18
2022-08-26T10:55:29.673Z,9.65
2022-08-26T10:58:52.975Z,8.52
2022-08-26T11:01:47.225Z,9.48
2022-08-26T11:04:44.507Z,7.35
2022-08-26T11:22:36.223Z,10.98
2022-08-26T11:43:34.100Z,9.98
2022-08-26T11:46:28.051Z,9.85
2022-08-26T11:49:14.879Z,13.13
2022-08-26T11:55:01.893Z,11.95
2022-08-26T11:57:54.876Z,11.82
2022-08-26T12:01:09.582Z,18.90
2022-08-26T12:06:50.152Z,11.95
2022-08-26T12:09:52.811Z,11.02
2022-08-26T12:12:40.343Z,9.90
2022-08-26T12:15:29.741Z,9.20
2022-08-26T12:21:34.574Z,8.55
2022-08-26T12:33:51.192Z,13.35
2022-08-26T12:36:43.190Z,12.57
2022-08-26T12:39:40.459Z,10.60
2022-08-26T12:50:57.277Z,11.10
2022-08-26T12:53:44.410Z,12.18
2022-08-26T12:56:40.141Z,14.85
2022-08-26T12:59:26.867Z,11.02
2022-08-26T13:02:36.196Z,10.80
2022-08-26T13:05:25.567Z,17.83
2022-08-26T13:11:26.570Z,13.15
2022-08-26T13:20:02.683Z,18.27
2022-08-26T13:22:58.494Z,14.07
2022-08-26T13:25:45.438Z,12.93
2022-08-26T13:28:31.669Z,18.95
2022-08-26T13:31:20.008Z,13.98
2022-08-26T13:34:06.188Z,14.35
2022-08-26T13:36:54.508Z,11.32
2022-08-26T13:39:41.959Z,12.60
2022-08-26T13:48:14.559Z,12.18
2022-08-26T13:51:02.487Z,10.98
2022-08-26T13:59:47.007Z,9.48
2022-08-26T14:02:33.694Z,10.93
2022-08-26T14:05:20.050Z,12.15
2022-08-26T14:08:06.737Z,9.07
2022-08-26T14:10:52.878Z,10.70
2022-08-26T14:13:39.526Z,13.93
2022-08-26T14:23:12.999Z,11.95
2022-08-26T14:26:08.489Z,7.97
2022-08-26T14:29:03.131Z,11.57
2022-08-26T14:31:49.530Z,11.98
2022-08-26T14:35:07.359Z,7.45
2022-08-26T14:37:54.090Z,8.85
2022-08-26T14:40:44.799Z,7.93
2022-08-26T14:43:31.469Z,9.25
2022-08-26T14:46:18.486Z,8.35
2022-08-26T14:49:09.877Z,10.20
2022-08-26T14:51:56.793Z,8.68
2022-08-26T14:54:42.735Z,9.35
2022-08-26T15:03:44.827Z,11.75
2022-08-26T15:06:32.092Z,8.35
2022-08-26T15:09:20.889Z,6.57
2022-08-26T15:12:02.471Z,6.35
2022-08-26T15:14:48.756Z,5.70
2022-08-26T15:17:35.907Z,5.57
2022-08-26T15:20:21.896Z,5.80
2022-08-26T15:23:11.400Z,6.25
2022-08-26T15:28:45.024Z,5.63
2022-08-26T15:31:33.563Z,4.40
2022-08-26T15:34:20.145Z,5.82
2022-08-26T15:40:02.471Z,6.45
2022-08-26T15:42:54.420Z,4.97
2022-08-26T15:45:47.394Z,5.68
2022-08-26T15:51:32.047Z,5.63
2022-08-26T16:06:41.557Z,5.47
2022-08-26T16:50:25.291Z,6.68
2022-08-26T16:58:59.079Z,8.32
2022-08-26T17:01:54.515Z,8.10
2022-08-26T17:04:41.458Z,4.05
2022-08-26T17:07:32.179Z,5.15
2022-08-26T17:16:26.926Z,3.30
2022-08-26T17:22:26.569Z,5.60
2022-08-26T21:39:50.150Z,6.22
2022-08-26T22:17:38.150Z,4.90
2022-08-26T22:20:24.155Z,5.28
2022-08-26T22:23:10.641Z,7.25
2022-08-26T22:25:58.556Z,3.45
2022-08-26T22:37:32.808Z,6.05
2022-08-26T22:40:19.575Z,6.13
2022-08-26T22:43:06.600Z,5.70
2022-08-26T22:45:53.260Z,5.13
2022-08-26T22:48:39.698Z,4.47
2022-08-26T22:51:26.011Z,8.23
2022-08-26T22:54:12.751Z,9.43
2022-08-26T23:00:02.785Z,9.13
2022-08-26T23:02:48.945Z,8.07
2022-08-26T23:05:35.437Z,4.57
2022-08-26T23:08:21.966Z,8.30
2022-08-26T23:14:12.669Z,5.13
2022-08-26T23:16:58.737Z,8.50
2022-08-26T23:40:30.331Z,5.45
